Time;durP1;ratioP1;P1;durP2;ratioP2;P2;SDS_P1;SDS_P2;PMS_P1;PMS_P2;Temp;Humidity;BMP_temperature;BMP_pressure;BME280_temperature;BME280_humidity;BME280_pressure;Samples;Min_cycle;Max_cycle;Signal;HPM_P1;HPM_P2
2022/06/01 00:02:09;;;;;;;4.65;3.45;;;;;;;16.18;100.00;94645.94;5091525;28;20168;-66
2022/06/01 00:04:35;;;;;;;7.57;4.03;;;;;;;16.41;100.00;94648.63;5073077;28;20626;-66
2022/06/01 00:07:00;;;;;;;5.43;3.45;;;;;;;16.32;100.00;94644.50;5091417;28;20259;-64
2022/06/01 00:09:26;;;;;;;6.53;3.78;;;;;;;16.28;100.00;94644.00;5091291;28;20234;-63
2022/06/01 00:11:51;;;;;;;7.72;3.45;;;;;;;16.21;100.00;94643.06;5072560;28;20188;-64
2022/06/01 00:14:18;;;;;;;6.95;3.30;;;;;;;16.02;100.00;94640.84;5091861;28;20204;-63
2022/06/01 00:16:43;;;;;;;7.80;3.17;;;;;;;15.89;100.00;94641.38;5091341;28;20207;-64
2022/06/01 00:19:10;;;;;;;5.95;3.13;;;;;;;15.68;100.00;94635.13;5091853;28;20232;-63
2022/06/01 00:22:11;;;;;;;6.70;3.30;;;;;;;15.46;100.00;94651.13;5091358;28;20180;-63
2022/06/01 00:24:21;;;;;;;4.60;2.90;;;;;;;15.20;100.00;94637.63;5091518;28;20269;-64
2022/06/01 00:26:48;;;;;;;11.50;3.60;;;;;;;15.14;100.00;94642.44;5094878;28;20176;-62
2022/06/01 00:29:14;;;;;;;5.15;2.97;;;;;;;15.24;100.00;94644.03;5095226;28;20238;-61
2022/06/01 00:31:39;;;;;;;6.72;2.58;;;;;;;15.29;100.00;94642.59;5076654;28;20199;-61
2022/06/01 00:34:04;;;;;;;5.57;3.22;;;;;;;15.19;100.00;94643.72;5076781;28;20200;-61
2022/06/01 00:36:30;;;;;;;7.45;3.47;;;;;;;15.15;100.00;94641.47;5094751;28;20184;-62
2022/06/01 00:38:55;;;;;;;11.35;3.72;;;;;;;15.20;100.00;94637.63;5095071;28;20256;-62
2022/06/01 00:41:21;;;;;;;3.60;3.30;;;;;;;15.33;100.00;94632.84;5094618;28;20181;-64
2022/06/01 00:43:46;;;;;;;8.38;3.40;;;;;;;15.34;100.00;94627.56;5076627;28;20204;-60
2022/06/01 00:46:13;;;;;;;5.35;3.75;;;;;;;15.31;100.00;94632.22;5094514;28;20626;-64
2022/06/01 00:48:43;;;;;;;8.07;4.10;;;;;;;15.32;100.00;94626.13;5094765;28;20673;-63
2022/06/01 00:51:12;;;;;;;5.10;3.90;;;;;;;15.30;100.00;94625.47;5094438;28;20213;-63
2022/06/01 00:53:40;;;;;;;7.57;4.22;;;;;;;15.37;100.00;94618.78;5094327;28;20287;-63
2022/06/01 00:56:19;;;;;;;7.90;3.88;;;;;;;15.39;100.00;94620.19;5076151;28;20173;-64
2022/06/01 00:58:48;;;;;;;10.70;3.80;;;;;;;15.49;100.00;94627.78;5076328;28;20650;-64
2022/06/01 01:01:18;;;;;;;6.03;4.03;;;;;;;15.45;100.00;94634.19;5076200;28;20183;-62
2022/06/01 01:03:46;;;;;;;5.03;4.03;;;;;;;15.53;100.00;94623.94;5076648;28;20196;-73
2022/06/01 01:06:23;;;;;;;6.90;3.58;;;;;;;15.49;100.00;94623.44;5094293;28;20218;-65
2022/06/01 01:08:48;;;;;;;4.53;3.90;;;;;;;15.52;100.00;94623.13;5094881;28;20211;-64
2022/06/01 01:11:17;;;;;;;6.43;3.80;;;;;;;15.33;100.00;94628.50;5075969;28;20674;-62
2022/06/01 01:13:46;;;;;;;6.57;3.70;;;;;;;15.33;100.00;94620.03;5094621;28;20254;-63
2022/06/01 01:16:14;;;;;;;8.90;4.15;;;;;;;15.24;100.00;94613.31;5076088;28;20207;-61
2022/06/01 01:18:43;;;;;;;11.10;3.95;;;;;;;15.29;100.00;94622.09;5094176;28;20204;-64
2022/06/01 01:21:26;;;;;;;9.32;3.53;;;;;;;15.33;100.00;94617.50;5075706;28;20226;-61
2022/06/01 01:24:13;;;;;;;6.85;3.83;;;;;;;15.23;100.00;94614.28;5094434;28;20202;-65
2022/06/01 01:26:40;;;;;;;5.63;4.03;;;;;;;15.20;100.00;94607.72;5093962;28;20255;-65
2022/06/01 01:29:10;;;;;;;5.18;3.65;;;;;;;15.17;100.00;94609.78;5075395;28;20351;-64
2022/06/01 01:31:38;;;;;;;4.22;3.10;;;;;;;15.01;100.00;94597.75;5093719;28;20175;-64
2022/06/01 01:34:05;;;;;;;9.50;3.55;;;;;;;14.94;100.00;94602.72;5093458;28;20204;-62
2022/06/01 01:36:38;;;;;;;5.50;3.17;;;;;;;14.89;100.00;94594.69;5093516;28;20181;-62
2022/06/01 01:39:13;;;;;;;8.07;3.22;;;;;;;14.94;100.00;94592.47;5093477;28;20287;-64
2022/06/01 01:41:46;;;;;;;10.10;3.50;;;;;;;15.02;100.00;94586.56;5093426;28;20604;-64
2022/06/01 01:46:58;;;;;;;4.07;3.25;;;;;;;15.13;100.00;94599.84;5100645;22;20223;-61
2022/06/01 01:49:30;;;;;;;8.80;3.58;;;;;;;15.12;100.00;94584.66;5093397;28;20196;-62
2022/06/01 01:52:00;;;;;;;8.70;3.40;;;;;;;15.02;100.00;94589.94;5075418;28;20249;-61
2022/06/01 01:54:48;;;;;;;6.70;3.55;;;;;;;14.87;100.00;94591.50;5075114;28;20644;-62
2022/06/01 01:57:17;;;;;;;7.60;3.55;;;;;;;14.72;100.00;94582.03;5093273;28;20515;-61
2022/06/01 02:00:00;;;;;;;14.47;4.47;;;;;;;14.69;100.00;94588.25;5093326;28;20208;-64
2022/06/01 02:02:32;;;;;;;4.65;3.55;;;;;;;14.61;100.00;94590.78;5093027;28;20172;-65
2022/06/01 02:07:56;;;;;;;11.88;3.60;;;;;;;14.55;100.00;94591.41;5093015;28;20288;-63
2022/06/01 02:13:07;;;;;;;6.85;3.50;;;;;;;14.53;100.00;94602.75;5093128;28;20202;-62
2022/06/01 02:15:39;;;;;;;10.70;3.95;;;;;;;14.55;100.00;94596.53;5093262;28;20183;-63
2022/06/01 02:18:12;;;;;;;7.70;3.45;;;;;;;14.80;100.00;94595.66;5092639;28;20638;-64
2022/06/01 02:20:59;;;;;;;6.95;4.15;;;;;;;14.80;100.00;94598.22;5093252;28;20237;-63
2022/06/01 02:23:29;;;;;;;7.17;3.27;;;;;;;14.93;100.00;94600.28;5074644;28;20220;-64
2022/06/01 02:25:56;;;;;;;6.07;3.70;;;;;;;14.97;100.00;94602.38;5074544;28;20211;-63
2022/06/01 02:28:22;;;;;;;5.18;4.00;;;;;;;14.82;100.00;94598.03;5092732;28;20180;-64
2022/06/01 02:30:48;;;;;;;8.38;3.25;;;;;;;14.74;100.00;94603.16;5092817;28;20483;-64
2022/06/01 02:33:19;;;;;;;5.90;3.65;;;;;;;14.84;100.00;94601.25;5092449;28;20202;-63
2022/06/01 02:35:49;;;;;;;5.30;3.50;;;;;;;14.84;100.00;94609.75;5092793;28;20187;-61
2022/06/01 02:38:20;;;;;;;8.35;3.22;;;;;;;14.63;100.00;94603.41;5092788;28;20696;-63
2022/06/01 02:40:46;;;;;;;9.85;3.70;;;;;;;14.62;100.00;94605.19;5092882;28;20184;-65
2022/06/01 02:43:13;;;;;;;6.25;4.25;;;;;;;14.77;100.00;94611.31;5092801;28;20732;-63
2022/06/01 02:45:39;;;;;;;4.85;3.38;;;;;;;14.70;100.00;94623.13;5092732;28;20215;-62
2022/06/01 02:48:06;;;;;;;4.82;2.97;;;;;;;14.67;100.00;94610.63;5092111;28;20271;-62
2022/06/01 02:50:33;;;;;;;5.28;2.83;;;;;;;14.52;100.00;94614.75;5092560;28;20197;-65
2022/06/01 02:52:59;;;;;;;6.28;3.78;;;;;;;14.51;100.00;94610.59;5092423;28;20249;-64
2022/06/01 02:55:26;;;;;;;8.00;3.23;;;;;;;14.59;100.00;94610.63;5092607;28;20627;-61
2022/06/01 02:57:53;;;;;;;6.88;3.88;;;;;;;14.64;100.00;94610.97;5073861;28;20200;-64
2022/06/01 03:00:41;;;;;;;6.07;3.83;;;;;;;14.75;100.00;94608.09;5074037;28;20241;-61
2022/06/01 03:03:09;;;;;;;7.13;4.27;;;;;;;14.81;100.00;94614.34;5092051;28;20196;-61
2022/06/01 03:05:40;;;;;;;11.20;4.17;;;;;;;14.71;100.00;94606.81;5057457;28;20204;-62
2022/06/01 03:08:06;;;;;;;7.22;3.30;;;;;;;14.62;100.00;94609.50;5091941;28;20742;-62
2022/06/01 03:10:33;;;;;;;6.10;3.10;;;;;;;14.59;100.00;94600.38;5092217;28;20634;-61
2022/06/01 03:12:58;;;;;;;4.80;3.10;;;;;;;14.65;100.00;94610.00;5092123;28;20669;-64
2022/06/01 03:15:25;;;;;;;5.35;3.70;;;;;;;14.55;100.00;94606.75;5092194;28;20188;-63
2022/06/01 03:17:53;;;;;;;7.53;3.65;;;;;;;14.75;100.00;94615.78;5091862;28;20196;-64
2022/06/01 03:20:20;;;;;;;10.23;3.70;;;;;;;14.68;100.00;94619.13;5092178;28;20220;-65
2022/06/01 03:22:46;;;;;;;8.63;3.10;;;;;;;14.68;100.00;94632.72;5073663;28;20682;-64
2022/06/01 03:25:15;;;;;;;5.68;3.08;;;;;;;14.68;100.00;94632.72;5073632;28;20207;-64
2022/06/01 03:27:41;;;;;;;4.57;3.22;;;;;;;14.86;100.00;94632.59;5091583;28;20188;-66
2022/06/01 03:30:11;;;;;;;6.18;3.10;;;;;;;15.09;100.00;94647.22;5091963;28;20199;-64
2022/06/01 03:32:37;;;;;;;4.82;3.60;;;;;;;15.09;100.00;94644.66;5091932;28;20187;-65
2022/06/01 03:35:07;;;;;;;4.70;3.05;;;;;;;15.05;100.00;94640.00;5091753;28;20180;-64
2022/06/01 03:37:32;;;;;;;8.05;3.40;;;;;;;14.91;100.00;94636.28;5091710;28;20312;-62
2022/06/01 03:39:58;;;;;;;10.93;3.53;;;;;;;14.99;100.00;94632.94;5091900;28;20191;-64
2022/06/01 03:42:23;;;;;;;3.93;3.00;;;;;;;15.06;100.00;94634.75;5073629;28;20176;-62
2022/06/01 03:47:33;;;;;;;4.97;4.07;;;;;;;15.17;100.00;94641.31;5091728;28;20193;-62
2022/06/01 03:49:58;;;;;;;12.95;4.60;;;;;;;15.21;100.00;94641.81;5091737;28;20256;-64
2022/06/01 03:52:25;;;;;;;6.90;3.72;;;;;;;15.24;100.00;94629.47;5091616;28;20564;-63
2022/06/01 03:54:50;;;;;;;7.82;4.05;;;;;;;15.32;100.00;94644.03;5091902;28;20187;-64
2022/06/01 03:57:16;;;;;;;8.63;3.90;;;;;;;15.39;100.00;94642.47;5056897;28;20172;-61
2022/06/01 03:59:41;;;;;;;8.00;3.90;;;;;;;15.34;100.00;94635.25;5074445;28;20196;-63
2022/06/01 04:02:07;;;;;;;4.45;3.80;;;;;;;15.27;100.00;94638.63;5095484;28;20642;-64
2022/06/01 04:04:34;;;;;;;8.18;3.67;;;;;;;15.29;100.00;94636.69;5095227;28;20209;-64
2022/06/01 04:07:00;;;;;;;4.90;3.63;;;;;;;15.50;100.00;94649.84;5095297;28;20267;-64
2022/06/01 04:09:25;;;;;;;4.57;3.75;;;;;;;15.69;100.00;94641.84;5076916;28;20235;-61
2022/06/01 04:11:52;;;;;;;4.68;3.90;;;;;;;15.67;100.00;94646.34;5076999;28;20185;-62
2022/06/01 04:14:21;;;;;;;6.82;4.38;;;;;;;15.86;100.00;94658.81;5095073;28;20192;-63
2022/06/01 04:16:47;;;;;;;12.40;4.07;;;;;;;15.93;100.00;94655.47;5095194;28;20184;-64
2022/06/01 04:19:13;;;;;;;7.00;3.80;;;;;;;15.87;100.00;94653.56;5076814;28;20204;-64
2022/06/01 04:21:41;;;;;;;8.90;4.32;;;;;;;15.88;100.00;94655.13;5095133;28;20180;-62
2022/06/01 04:24:12;;;;;;;8.95;3.78;;;;;;;15.94;100.00;94653.69;5095025;28;20222;-62
2022/06/01 04:26:38;;;;;;;7.90;4.57;;;;;;;15.81;100.00;94643.13;5076536;28;20239;-62
2022/06/01 04:29:03;;;;;;;6.13;4.35;;;;;;;15.90;100.00;94653.22;5094879;28;20701;-64
2022/06/01 04:31:29;;;;;;;10.18;4.00;;;;;;;15.94;100.00;94654.50;5094547;28;20184;-64
2022/06/01 04:33:54;;;;;;;8.68;4.38;;;;;;;16.22;100.00;94634.41;5076396;28;20281;-61
2022/06/01 04:36:21;;;;;;;10.63;5.03;;;;;;;16.59;100.00;94644.91;5094482;28;20184;-60
2022/06/01 04:38:47;;;;;;;7.60;5.07;;;;;;;16.77;100.00;94647.22;5094653;28;20305;-62
2022/06/01 04:41:12;;;;;;;11.13;5.47;;;;;;;16.71;100.00;94638.44;5094546;28;20657;-61
2022/06/01 04:43:38;;;;;;;7.45;5.18;;;;;;;16.63;100.00;94658.19;5094540;28;20196;-61
2022/06/01 04:46:03;;;;;;;7.47;5.25;;;;;;;16.57;100.00;94662.22;5094970;28;20235;-65
2022/06/01 04:48:28;;;;;;;8.65;4.50;;;;;;;16.72;100.00;94675.97;5094663;28;20243;-64
2022/06/01 04:50:56;;;;;;;15.75;5.15;;;;;;;17.02;100.00;94665.88;5076401;28;20632;-61
2022/06/01 04:53:22;;;;;;;12.40;5.18;;;;;;;17.07;100.00;94645.66;5094272;28;20188;-62
2022/06/01 04:55:48;;;;;;;9.98;4.63;;;;;;;17.12;100.00;94649.31;5094181;28;20203;-64
2022/06/01 04:58:13;;;;;;;7.22;4.85;;;;;;;17.01;100.00;94669.44;5073987;22;20578;-66
2022/06/01 05:00:40;;;;;;;6.88;4.32;;;;;;;16.74;100.00;94663.78;5073930;28;20689;-67
2022/06/01 05:03:06;;;;;;;7.53;3.72;;;;;;;16.58;100.00;94674.09;5074184;28;20201;-66
2022/06/01 05:05:36;;;;;;;10.45;4.30;;;;;;;16.38;100.00;94654.09;5073937;28;20254;-62
2022/06/01 05:08:01;;;;;;;7.30;3.28;;;;;;;16.23;100.00;94666.78;5118829;22;20227;-65
2022/06/01 05:10:28;;;;;;;4.20;3.28;;;;;;;16.13;100.00;94663.59;5114080;28;20257;-64
2022/06/01 05:12:54;;;;;;;5.18;3.58;;;;;;;16.00;100.00;94653.03;5115635;22;20223;-66
2022/06/01 05:15:19;;;;;;;7.50;3.40;;;;;;;15.91;100.00;94659.16;5093997;28;20180;-66
2022/06/01 05:17:44;;;;;;;6.10;3.78;;;;;;;15.99;100.00;94669.41;5075702;28;20215;-67
2022/06/01 05:20:11;;;;;;;8.77;4.68;;;;;;;16.01;100.00;94667.47;5093957;28;20173;-64
2022/06/01 05:22:37;;;;;;;9.68;5.95;;;;;;;15.97;100.00;94658.50;5093858;28;20207;-66
2022/06/01 05:25:03;;;;;;;10.80;6.35;;;;;;;15.96;100.00;94669.72;5075564;28;20200;-67
2022/06/01 05:27:30;;;;;;;17.40;7.53;;;;;;;16.19;100.00;94667.28;5093736;28;20188;-68
2022/06/01 05:29:56;;;;;;;9.35;6.47;;;;;;;16.22;100.00;94670.31;5088638;23;20222;-66
2022/06/01 05:32:22;;;;;;;9.43;6.18;;;;;;;16.65;100.00;94671.66;5114222;28;20179;-68
2022/06/01 05:34:47;;;;;;;9.45;7.25;;;;;;;16.72;100.00;94670.03;5128609;22;20219;-67
2022/06/01 05:37:13;;;;;;;14.65;7.05;;;;;;;16.71;100.00;94678.69;5113974;22;20765;-66
2022/06/01 05:39:38;;;;;;;13.20;6.57;;;;;;;17.43;100.00;94670.63;5093525;28;20188;-66
2022/06/01 05:42:04;;;;;;;16.05;7.38;;;;;;;17.25;100.00;94680.38;5093923;28;20177;-65
2022/06/01 05:44:30;;;;;;;16.15;7.75;;;;;;;17.20;100.00;94679.28;5113722;22;20618;-65
2022/06/01 05:46:57;;;;;;;9.13;7.15;;;;;;;17.13;100.00;94673.22;5093415;28;20172;-64
2022/06/01 05:49:22;;;;;;;14.93;7.28;;;;;;;17.22;100.00;94670.44;5106061;22;20309;-65
2022/06/01 05:51:48;;;;;;;10.48;7.72;;;;;;;17.45;100.00;94691.03;5113759;28;20167;-65
2022/06/01 05:54:14;;;;;;;15.18;6.80;;;;;;;17.40;100.00;94681.25;5113595;28;20216;-66
2022/06/01 05:56:39;;;;;;;11.30;6.40;;;;;;;17.36;100.00;94664.56;5095400;28;20228;-65
2022/06/01 05:59:04;;;;;;;9.00;5.65;;;;;;;17.40;100.00;94670.16;5113714;28;20207;-67
2022/06/01 06:01:30;;;;;;;9.00;5.93;;;;;;;17.26;100.00;94670.91;5113615;28;20167;-62
2022/06/01 06:03:55;;;;;;;9.15;6.00;;;;;;;17.18;100.00;94656.34;5103374;22;20221;-65
2022/06/01 06:06:23;;;;;;;14.35;5.95;;;;;;;16.97;100.00;94648.41;5108964;22;20227;-64
2022/06/01 06:08:52;;;;;;;19.67;6.75;;;;;;;16.97;100.00;94650.97;5111300;22;20231;-66
2022/06/01 06:13:59;;;;;;;9.00;6.05;;;;;;;17.33;100.00;94666.69;5099796;22;20228;-66
2022/06/01 06:16:27;;;;;;;9.95;6.60;;;;;;;17.19;100.00;94652.00;5092950;28;20176;-66
2022/06/01 06:18:56;;;;;;;13.38;7.13;;;;;;;17.05;100.00;94650.16;5092993;28;20227;-63
2022/06/01 06:21:22;;;;;;;8.77;6.07;;;;;;;17.22;100.00;94651.66;5110109;22;20892;-66
2022/06/01 06:23:48;;;;;;;11.02;7.20;;;;;;;17.27;100.00;94657.09;5112995;22;20710;-66
2022/06/01 06:26:14;;;;;;;11.20;7.95;;;;;;;17.28;100.00;94659.47;5092836;28;20230;-66
2022/06/01 06:28:39;;;;;;;14.57;7.00;;;;;;;17.42;100.00;94647.66;5093230;28;20204;-62
2022/06/01 06:31:04;;;;;;;11.52;7.70;;;;;;;17.54;100.00;94647.13;5092748;28;20173;-66
2022/06/01 06:33:30;;;;;;;20.40;7.88;;;;;;;17.64;100.00;94636.59;5074756;28;20303;-64
2022/06/01 06:36:01;;;;;;;15.90;7.70;;;;;;;17.93;100.00;94657.25;5105986;22;20238;-66
2022/06/01 06:38:29;;;;;;;14.68;7.95;;;;;;;17.99;100.00;94648.84;5111632;28;20249;-64
2022/06/01 06:40:56;;;;;;;13.75;8.35;;;;;;;18.02;100.00;94643.34;5094679;28;20183;-64
2022/06/01 06:43:24;;;;;;;16.65;8.38;;;;;;;18.16;100.00;94663.13;5112833;22;20254;-64
2022/06/01 06:46:00;;;;;;;21.00;9.95;;;;;;;18.00;100.00;94640.13;5102734;22;20741;-64
2022/06/01 06:48:26;;;;;;;18.90;10.82;;;;;;;18.06;100.00;94647.16;5079475;22;20304;-64
2022/06/01 06:50:58;;;;;;;15.27;10.13;;;;;;;18.28;100.00;94646.28;5100339;22;20311;-67
2022/06/01 06:53:24;;;;;;;19.65;9.98;;;;;;;18.35;100.00;94642.06;5092410;28;20208;-65
2022/06/01 06:55:50;;;;;;;17.80;8.82;;;;;;;18.45;100.00;94641.81;5092275;28;20646;-67
2022/06/01 06:58:16;;;;;;;18.83;9.68;;;;;;;18.48;100.00;94641.47;5092284;28;20198;-63
2022/06/01 07:00:41;;;;;;;19.05;10.27;;;;;;;18.55;100.00;94636.38;5092797;28;20205;-62
2022/06/01 07:03:07;;;;;;;13.27;10.32;;;;;;;18.54;100.00;94634.81;5092450;28;20222;-64
2022/06/01 07:08:17;;;;;;;21.38;11.38;;;;;;;18.66;100.00;94633.38;5092441;28;20225;-61
2022/06/01 07:10:42;;;;;;;16.77;11.15;;;;;;;18.67;100.00;94637.53;5092474;28;20173;-63
2022/06/01 07:13:08;;;;;;;17.10;11.30;;;;;;;18.73;100.00;94647.91;5099833;22;20311;-63
2022/06/01 07:15:35;;;;;;;14.15;10.43;;;;;;;18.68;100.00;94650.25;5091889;28;20233;-63
2022/06/01 07:18:01;;;;;;;17.90;10.52;;;;;;;18.76;100.00;94646.75;5092240;28;20211;-66
2022/06/01 07:20:27;;;;;;;18.98;10.45;;;;;;;18.93;100.00;94646.38;5092268;28;20176;-64
2022/06/01 07:22:56;;;;;;;16.15;9.90;;;;;;;19.07;100.00;94652.47;5099507;22;20306;-65
2022/06/01 07:25:21;;;;;;;16.08;10.60;;;;;;;19.12;100.00;94645.00;5092326;28;20214;-65
2022/06/01 07:27:54;;;;;;;15.63;10.85;;;;;;;19.38;100.00;94635.00;5099267;22;20348;-64
2022/06/01 07:30:19;;;;;;;19.17;10.85;;;;;;;19.24;100.00;94628.09;5091593;28;20177;-65
2022/06/01 07:32:46;;;;;;;19.88;11.13;;;;;;;19.44;100.00;94646.34;5091521;28;20199;-64
2022/06/01 07:35:12;;;;;;;19.42;12.00;;;;;;;19.38;100.00;94639.34;5102902;22;20228;-63
2022/06/01 07:43:06;;;;;;;21.52;12.88;;;;;;;19.56;100.00;94650.84;5095616;28;20202;-65
2022/06/01 07:45:37;;;;;;;17.13;11.45;;;;;;;19.71;100.00;94671.41;5077544;28;20216;-63
2022/06/01 07:48:05;;;;;;;20.80;11.98;;;;;;;19.75;100.00;94646.84;5095447;28;20235;-64
2022/06/01 07:50:31;;;;;;;18.48;11.85;;;;;;;19.76;100.00;94646.66;5095786;28;20180;-64
2022/06/01 07:52:58;;;;;;;20.70;12.27;;;;;;;19.74;100.00;94637.50;5095280;28;20180;-63
2022/06/01 07:55:23;;;;;;;21.63;12.68;;;;;;;19.88;100.00;94642.59;5095097;28;20188;-65
2022/06/01 07:57:49;;;;;;;18.80;11.40;;;;;;;20.06;100.00;94635.19;5095040;28;20223;-66
2022/06/01 08:00:15;;;;;;;15.02;9.95;;;;;;;20.13;100.00;94637.00;5095399;28;20229;-64
2022/06/01 08:02:41;;;;;;;20.90;10.43;;;;;;;20.11;100.00;94632.03;5095221;28;20207;-63
2022/06/01 08:05:08;;;;;;;14.93;10.73;;;;;;;19.90;100.00;94624.31;5095242;28;20235;-64
2022/06/01 08:07:36;;;;;;;16.55;11.13;;;;;;;20.20;100.00;94651.56;5076719;28;20199;-67
2022/06/01 08:10:03;;;;;;;28.98;15.10;;;;;;;20.42;100.00;94650.53;5095133;28;20192;-63
2022/06/01 08:15:13;;;;;;;15.23;11.48;;;;;;;20.84;100.00;94659.91;5095487;28;20191;-63
2022/06/01 08:17:38;;;;;;;20.63;12.25;;;;;;;20.93;100.00;94658.75;5076566;28;20242;-63
2022/06/01 08:20:04;;;;;;;21.20;11.85;;;;;;;20.71;100.00;94623.66;5076504;28;20275;-63
2022/06/01 08:22:30;;;;;;;18.65;10.50;;;;;;;20.86;100.00;94642.44;5094252;28;20195;-68
2022/06/01 08:24:55;;;;;;;17.15;10.77;;;;;;;21.02;100.00;94665.38;5094525;28;20657;-62
2022/06/01 08:27:21;;;;;;;16.90;11.02;;;;;;;21.08;100.00;94677.53;5060036;28;20176;-62
2022/06/01 08:29:46;;;;;;;17.02;10.07;;;;;;;20.98;100.00;94669.31;5095256;28;20173;-62
2022/06/01 08:32:12;;;;;;;16.48;10.80;;;;;;;21.15;100.00;94680.94;5095072;28;20312;-61
2022/06/01 08:34:38;;;;;;;16.00;10.15;;;;;;;21.17;100.00;94636.81;5094879;28;20290;-63
2022/06/01 08:37:04;;;;;;;17.73;10.38;;;;;;;21.27;100.00;94624.31;5094465;28;20241;-61
2022/06/01 08:39:29;;;;;;;18.30;11.20;;;;;;;21.55;100.00;94651.59;5094321;28;20200;-67
2022/06/01 08:41:56;;;;;;;17.77;10.00;;;;;;;21.71;100.00;94687.44;5076749;28;20262;-62
2022/06/01 08:44:28;;;;;;;18.33;9.73;;;;;;;21.60;100.00;94677.69;5094741;28;20198;-62
2022/06/01 08:46:58;;;;;;;13.23;9.65;;;;;;;21.80;100.00;94669.16;5094265;28;20211;-61
2022/06/01 08:49:26;;;;;;;16.23;10.73;;;;;;;21.87;100.00;94695.88;5094975;28;20287;-63
2022/06/01 08:51:53;;;;;;;20.75;10.10;;;;;;;22.00;100.00;94664.84;5094593;28;20184;-62
2022/06/01 08:54:19;;;;;;;16.50;9.48;;;;;;;22.10;100.00;94698.91;5094348;28;20194;-61
2022/06/01 08:56:50;;;;;;;16.90;9.30;;;;;;;22.12;100.00;94681.38;5094626;28;20177;-61
2022/06/01 08:59:38;;;;;;;13.25;9.55;;;;;;;21.81;100.00;94702.66;5094509;28;20673;-59
2022/06/01 09:02:20;;;;;;;21.73;9.55;;;;;;;22.13;100.00;94641.50;5094444;28;20168;-61
2022/06/01 09:05:09;;;;;;;12.93;9.05;;;;;;;22.28;100.00;94642.88;5076567;28;20271;-68
2022/06/01 09:07:49;;;;;;;13.40;8.55;;;;;;;22.58;100.00;94692.53;5054456;28;20196;-67
2022/06/01 09:10:20;;;;;;;15.05;7.70;;;;;;;22.43;100.00;94705.66;5075805;28;20176;-65
2022/06/01 09:12:49;;;;;;;11.95;7.47;;;;;;;22.45;100.00;94726.97;5093859;28;20196;-66
2022/06/01 09:15:21;;;;;;;9.25;6.63;;;;;;;22.80;100.00;94773.44;5093887;28;20177;-65
2022/06/01 09:17:47;;;;;;;12.25;6.72;;;;;;;22.97;100.00;94720.94;5093677;28;20325;-66
2022/06/01 09:23:08;;;;;;;14.98;7.70;;;;;;;23.10;100.00;94707.94;5093925;28;20225;-65
2022/06/01 09:25:37;;;;;;;11.63;7.13;;;;;;;23.42;100.00;94749.56;5093829;28;20287;-65
2022/06/01 09:28:24;;;;;;;11.93;6.95;;;;;;;23.61;100.00;94720.13;5093513;28;20670;-66
2022/06/01 09:31:07;;;;;;;10.00;6.47;;;;;;;23.74;100.00;94725.22;5092858;28;20185;-67
2022/06/01 09:33:35;;;;;;;9.07;5.80;;;;;;;23.84;100.00;94752.34;5093494;28;20207;-61
2022/06/01 09:36:07;;;;;;;9.38;5.30;;;;;;;24.09;93.96;94833.78;5093727;28;20278;-61
2022/06/01 09:38:51;;;;;;;10.88;5.30;;;;;;;24.15;99.94;94733.41;5093348;28;20211;-60
2022/06/01 09:41:19;;;;;;;10.70;5.63;;;;;;;24.32;97.52;94760.44;5093824;28;20185;-60
2022/06/01 09:44:10;;;;;;;9.30;5.63;;;;;;;24.52;95.30;94792.31;5093274;28;20203;-63
2022/06/01 09:46:52;;;;;;;8.05;5.32;;;;;;;24.58;94.85;94760.28;5093067;28;20197;-61
2022/06/01 09:49:17;;;;;;;8.70;5.32;;;;;;;24.69;88.32;94849.78;5092803;28;20739;-61
2022/06/01 09:51:45;;;;;;;7.25;3.92;;;;;;;24.75;83.98;94890.56;5092942;28;20180;-64
2022/06/01 09:54:10;;;;;;;6.30;3.70;;;;;;;24.69;81.61;94909.59;5074678;28;20686;-61
2022/06/01 09:56:44;;;;;;;7.65;4.45;;;;;;;24.60;76.48;94844.06;5092165;28;20229;-62
2022/06/01 10:08:03;;;;;;;7.47;5.30;;;;;;;25.65;77.49;94762.41;5092746;28;20215;-61
2022/06/01 10:10:29;;;;;;;7.40;3.70;;;;;;;25.84;72.77;94849.16;5092831;28;20195;-62
2022/06/01 10:12:58;;;;;;;8.57;3.63;;;;;;;26.00;72.66;94822.50;5074488;28;20185;-61
2022/06/01 10:15:36;;;;;;;8.43;3.45;;;;;;;26.17;70.26;94842.53;5093146;28;20196;-61
2022/06/01 10:18:11;;;;;;;7.45;3.30;;;;;;;25.85;61.25;94960.97;5092797;28;20625;-61
2022/06/01 10:20:44;;;;;;;7.75;3.78;;;;;;;25.52;58.33;94969.09;5092858;28;20657;-62
2022/06/01 10:23:19;;;;;;;10.88;3.53;;;;;;;25.44;56.99;94958.94;5092655;28;20238;-60
2022/06/01 10:25:52;;;;;;;9.85;3.17;;;;;;;25.63;57.43;94929.31;5092287;28;20298;-61
2022/06/01 10:28:56;;;;;;;6.63;3.30;;;;;;;26.02;64.82;94758.69;5092586;28;20587;-62
2022/06/01 10:31:24;;;;;;;8.98;2.92;;;;;;;26.23;60.14;94878.16;5091563;28;20382;-62
2022/06/01 10:34:02;;;;;;;6.90;3.83;;;;;;;26.73;66.45;94747.41;5092911;28;20571;-66
2022/06/01 10:36:57;;;;;;;7.65;3.60;;;;;;;27.15;63.81;94801.13;5093020;28;20196;-62
2022/06/01 10:39:35;;;;;;;9.25;3.13;;;;;;;27.49;60.92;94868.25;5092600;28;20208;-63
2022/06/01 10:42:22;;;;;;;6.88;3.63;;;;;;;27.58;56.77;94906.03;5092465;28;20647;-62
2022/06/01 10:45:12;;;;;;;4.57;2.80;;;;;;;27.13;50.44;95040.75;5092241;28;20593;-61
2022/06/01 10:47:58;;;;;;;4.03;2.90;;;;;;;27.70;52.39;94959.09;5075187;28;20196;-62
2022/06/01 10:50:30;;;;;;;7.25;3.17;;;;;;;27.90;50.74;94977.03;5092291;28;20190;-66
2022/06/01 10:53:07;;;;;;;6.50;2.92;;;;;;;28.09;52.73;94918.38;5074036;28;20282;-62
2022/06/01 10:55:40;;;;;;;4.82;2.35;;;;;;;28.20;49.66;94996.00;5093042;28;20271;-61
2022/06/01 10:58:06;;;;;;;6.60;2.95;;;;;;;28.32;47.41;95040.47;5092206;28;20200;-63
2022/06/01 11:00:49;;;;;;;7.45;3.58;;;;;;;28.16;48.80;94966.91;5092433;28;20657;-63
2022/06/01 11:03:18;;;;;;;7.82;2.63;;;;;;;28.44;43.79;95085.75;5092106;28;20272;-65
2022/06/01 11:05:59;;;;;;;4.22;2.80;;;;;;;28.72;44.34;95017.78;5074135;28;20303;-64
2022/06/01 11:08:39;;;;;;;4.07;2.70;;;;;;;28.91;47.19;94914.44;5091562;28;20200;-61
2022/06/01 11:11:28;;;;;;;5.65;2.90;;;;;;;28.90;46.69;94929.38;5092477;28;20633;-64
2022/06/01 11:14:06;;;;;;;7.90;3.03;;;;;;;29.22;44.53;94984.69;5092000;28;20196;-64
2022/06/01 11:16:46;;;;;;;5.20;2.58;;;;;;;28.92;42.84;94977.06;5091866;28;20270;-64
2022/06/01 11:19:57;;;;;;;6.10;2.85;;;;;;;28.09;40.95;95008.09;5092170;28;20196;-62
2022/06/01 11:22:31;;;;;;;5.88;2.80;;;;;;;28.33;41.73;94960.97;5091995;28;20173;-63
2022/06/01 11:25:18;;;;;;;5.55;2.50;;;;;;;28.44;42.16;94945.25;5091759;28;20199;-62
2022/06/01 11:28:05;;;;;;;6.28;2.72;;;;;;;29.01;42.19;94930.31;5091760;28;20195;-61
2022/06/01 11:30:41;;;;;;;8.98;2.40;;;;;;;29.48;42.43;94921.16;5091996;28;20184;-63
2022/06/01 11:33:19;;;;;;;7.68;3.20;;;;;;;29.82;41.70;94924.53;5091639;28;20229;-61
2022/06/01 11:35:54;;;;;;;6.10;3.30;;;;;;;30.08;42.20;94904.69;5092033;28;20227;-61
2022/06/01 11:38:32;;;;;;;5.88;2.25;;;;;;;30.27;42.91;94890.22;5091580;28;20199;-62
2022/06/01 11:41:09;;;;;;;3.30;2.30;;;;;;;30.21;38.72;94985.66;5092477;28;20671;-64
2022/06/01 11:43:49;;;;;;;4.05;1.90;;;;;;;30.47;37.54;94969.22;5073518;28;20211;-62
2022/06/01 11:46:35;;;;;;;5.00;2.10;;;;;;;30.48;36.73;94929.59;5073529;28;20566;-61
2022/06/01 11:49:12;;;;;;;3.92;1.92;;;;;;;30.51;37.93;94897.59;5091668;28;20207;-61
2022/06/01 11:51:38;;;;;;;5.03;2.50;;;;;;;30.13;36.16;94910.78;5092021;28;20179;-61
2022/06/01 11:54:09;;;;;;;2.35;1.70;;;;;;;30.05;36.84;94884.19;5091609;28;20677;-61
2022/06/01 11:56:53;;;;;;;4.35;2.00;;;;;;;30.06;36.80;94872.66;5073509;28;20173;-62
2022/06/01 11:59:33;;;;;;;13.48;11.07;;;;;;;30.26;35.54;94892.03;5091612;28;20212;-61
2022/06/01 12:02:17;;;;;;;9.88;2.50;;;;;;;30.43;36.96;94856.06;5073324;28;20184;-65
2022/06/01 12:04:55;;;;;;;2.75;1.80;;;;;;;30.51;35.75;94875.81;5073403;28;20204;-61
2022/06/01 12:07:24;;;;;;;4.13;1.70;;;;;;;30.48;35.16;94884.97;5091523;28;20650;-64
2022/06/01 12:09:58;;;;;;;5.45;1.65;;;;;;;30.00;33.65;94913.00;5091705;28;20181;-61
2022/06/01 12:12:45;;;;;;;7.35;2.22;;;;;;;30.48;33.48;94913.06;5091613;28;20172;-60